Aeroporto :
LOGIN :

Iscrizione | Disclaimer

   EN    FR    IT 

 










Sommario :    VFR   VFR Marginale   IFR   IFR Intensivo   IFR Molto Intensivo
Visibilità : 
Base nubi : 
>= 8 km
>= 3000ft
5 / 8 km
1000 / 3000 ft
1500m / 5 km
500 / 1000 ft
800 / 1500m
200 / 500 ft
< 800m
< 200 ft
Simboli :   Temporali  Nebbia  Neve Forte  Precipitazioni Forti  Vento > 20 kt
SIGMETs :   Varie  Temporali  Ghiacco  Turbolenza  Onda orograficha  Ceneri Vulcaniche







- Altitudine del aeroporto : 2945 ft
- Codice IATA : RGS


LEBG - Burgos

ULTIMO METAR :
  • 220700Z 04007KT 7000 SCT009 09/08 Q1026

METARs OBSOLETI :
  • 220630Z 04007KT 4000 BR SCT007 09/09 Q1025
  • 220600Z 05009KT 4000 BR SCT002 09/09 Q1025
  • 220530Z 03011KT 3500 BR SCT002 09/09 Q1025
  • 220500Z 05007KT 4000 BR FEW004 09/09 Q1025
  • 220430Z AUTO 05006KT 010V080 2000 0500 BR BCFG BKN003/// 09/09 Q1025

TAF TAF LEBG
Valido dal 22 a 06 ore il 22 a 15 ore UTC


220500Z 2206/2215 06008KT 9999 FEW006
TEMPO 2206/2208 3500 BR BKN004
PROB30
TEMPO 2206/2207 0800 BCFG
TEMPO 2209/2215 04022KT
Nessun NOTAM noto per questo aeroporto.



MetMap, La meteo Aeronautica in un colpo d'occhio ! - Copyright ORBIFLY Dicembre 2007 - Disclaimer

ORBIFLY MET'MAP TEAM :

Programmazione e sviluppo : Alexandra Zaïnal
Concezione e sviluppo : Baudouin d'Aumeries
Co-Programmazione e sviluppo : Marc-Olivier Méhu
Supporto tecnico e logistico : Manuel Goepfert
Aiuto per la traduzione : Arnaldo La Scala

Contatto : metmap@orbifly.com




FONTI E CREDITI :

   NOAA